Melodia Web
Rádio Melodia Web - www.melodiaweb.com - São José do Rio Preto - SP - Brasil
quarta-feira, 26 de abril de 2017
Ouça a MelodiaWeb
Página inicial Ouça música de qualidade pela Internet

Ouça a MelodiaWeb Este site possui uma rádio web que prioriza música italiana, MPB, clássica, tango, bolero, instrumental, esperanto, etc.
Clique na imagem ao lado para ouvir
Ouça a MelodiaWeb
Eventos
Diminui o tamanho da fonte Aumentar o tamanho da fonte
16ª Corrida do Trabalhador em Catanduva/SP - 6 Km
Runner Brasil, segunda-feira, 12 de maio de 2014
16ª Corrida do Trabalhador em Catanduva/SP  -   6 Km
 16ª CORRIDA DO TRABALHADOR

CLASSIFICAÇÃO POR CATEGORIAS
==========================================================================================================================
Class. Num Nome Categoria Tempo Tempo Equipe
Bruto Líquido
==========================================================================================================================

-- GERAL MASCULINO --
1 28 ANDERSON SOUZA CRUZ GM3034 00:19:40 00:19:39 ARPA-SMEL / RAX / EMPÓRIO NATURAL
2 144 IVANEI XAVIER DE ARAUJO GM3539 00:19:50 00:19:49 RIBEIRÃO SHOPPING
3 91 EDUARDO CESAR DE OLIVEIRA GM3034 00:20:01 00:20:01 PILEU TEAM
4 280 PAULO VITOR LUNKES GM3539 00:20:03 00:20:03 PREF DE ITATIBA ACADEMIA PERFECT
5 122 GENIVAL GRIFFO GM3539 00:20:04 00:20:03 JAU

-- GERAL FEMININO --
1 198 KARINA SALLA GF2529 00:23:02 00:23:00 ATLETAS DO FUTURO
2 332 TATIANA RODRIGUES FERNANDES GF2529 00:23:08 00:23:08 SIGMATEC RUNNING
3 351 VALÉRIA SANCHES PRIETO GF3034 00:23:44 00:23:44 SMELT- CATANDUVA
4 309 RITA DE CASSIA MOREIRA GF2529 00:24:49 00:24:48 JAU
5 240 MARIA DO ROSARIO VIEIRA GF2529 00:26:33 00:26:31 TEAM VAQUEIRO

-- Feminino - 16 a 24 anos --
1 8 ADRIELI CRISTINA F LIBERATO GF1624 00:27:01 00:26:58 ATLETAS DO FUTURO
2 128 GLEICE PEREIRTA ROIDRIGUES GF1624 00:33:23 00:33:20 GUARIBA
3 143 ISABELA CHERUBIM GF1624 00:36:09 00:35:57
4 219 MAÍRA ADRIELLI DE OLIVEIRA GF1624 00:36:24 00:36:18
5 221 MANOELA FAGUNDES GF1624 00:36:34 00:36:25 TEAMVAQUEIRO
6 365 LUANA MADALENA GF1624 00:37:31 00:37:20
7 262 NATHALIA BERTONI PEREIRA GF1624 00:38:08 00:38:03 CORPO EM MOVIMENTO
8 46 BRENA SEGURA DA CRUZ GF1624 00:43:03 00:42:56 EQUIPE GREEN
9 260 MONIQUIELY DA SILVA VENANCIO GF1624 00:44:49 00:44:36
10 257 MELRI SOLINI MAZIEIRO GF1624 00:44:52 00:44:42 TEAM VAQUEIRO

-- Feminino - 25 a 29 anos --
1 243 MARIANA GIGLIOTTI MURIJO GF2529 00:31:38 00:31:28 CORREDORES UNIDOS DE JAHU - CORUJA
2 127 GLAUCIA VELOZO AGUIAR GF2529 00:33:13 00:33:06 TRIPLE ASSESSORIA ESPORTIVA
3 206 LÍLIAN CANTELLE GF2529 00:36:40 00:36:30 TEAM VAQUEIRO
4 63 CÍNTIA FIORELLI BENITE CINEIS GF2529 00:38:20 00:38:08 CORUJA
5 24 ALINE FERNANDA DE ABREU GF2529 00:39:10 00:39:00 TEAM VAQUEIRO
6 234 MARIA ANGELA BRUSCHI DAOGLIO GF2529 00:41:18 00:41:03
7 47 BRUNA SEGURA DA CRUZ GF2529 00:44:30 00:44:23 LIFE RUNNING
8 338 THAYS HELENA BRUNETTI FANHANI GF2529 00:45:50 00:45:40 LIFE RUNNING
9 333 TATIENE EVANS GUERRA GONCALVES GF2529 00:46:35 00:46:31 CORPO EM MOVIMENTO
10 256 MAYRA YARA GROGGIA GF2529 00:23:06 00:22:56 EQUIPE LIFE RUNNING

-- Feminino - 30 a 34 anos --
1 109 FERNANDA MARQUES GF3034 00:30:33 00:30:30 BOCAINA
2 33 ANDREIA VICENTE DOS REIS GF3034 00:31:41 00:31:35 SOL NASCENTE
3 244 MARINA PAZETO ALVARENGA GF3034 00:31:55 00:31:54 GUAÍRA GRAMAS PAISAGISMO
4 102 EVELINE VEBER TOZO GF3034 00:32:13 00:32:07 PERSONAL CLÁUDIA
5 328 SOLANGE JESUS SANTOS GF3034 00:39:48 00:39:42 ATLETAS DO FUTURO
6 106 FABIANA OLIVEIRA SOARES VIEIRA GF3034 00:49:37 00:49:33 SMART RUNNERS

-- Feminino - 35 a 39 anos --
1 356 VERA LUCIA CALEGARI DA SILVA GF3539 00:28:57 00:28:52 ASSESSORIA MARCELO CABRINI
2 276 PATRICIA APARECIDA DE OLIVEIRA GF3539 00:31:34 00:31:29 ATLETAS DO FUTURO
3 205 LILIAN BASSO MORETO GF3539 00:45:55 00:45:44 TEAM VAQUEIRO
4 291 RAKEL POSTERLI SIMONI DA SILVA GF3539 00:27:23 00:27:11

-- Feminino - 40 a 49 anos --
1 269 NEUSA MARIA FERNANDES DUARTE GF4049 00:28:59 00:28:52 ATLETISMO DE GUARIBA
2 93 ELANIA APARECIDA INACIO GF4049 00:30:10 00:30:10
3 238 MARIA CRISTINA PIAN GF4049 00:30:48 00:30:44 ATLETAS DO FUTURO
4 67 DALVA AP. PERPETUO CEVAIO GF4049 00:31:32 00:31:28 ACADEMIA CORPUS
5 263 NEIDE RODRIGUES DE ARAUJO GF4049 00:31:52 00:31:51 SOZINHA
6 211 LUCIANA ZANOTO GALLO GF4049 00:34:11 00:34:06 ATLETAS DO FUTURO
7 5 ADRIANA CRISTINA MAZZETTO GF4049 00:34:53 00:34:45 CORUJA- CORREDORES UNIDOS DE JAU
8 239 MARIA DAS GRAÇAS CUNHA GF4049 00:35:22 00:35:15 TRIPLE ASSESSORIA ESPORTIVA
9 268 NEREIDE FELIX DA SILVA CORRADI GF4049 00:36:22 00:36:14 TEAM VAQUEIRO
10 329 SOLEMAR CRISTIANE RICARDO GF4049 00:36:32 00:36:17 PÉ QUENTE
11 294 REGINA APARECIDA DOS SANTOS PE GF4049 00:37:24 00:37:16 ESPORTE GUARIBA
12 210 LUCIANA CONSTANCIO GF4049 00:41:29 00:41:11 PLAZA CATANDUVA
13 380 MELINA ZACCARO GARCIA GF4049 00:44:52 00:44:32
14 236 MARIA CLARA SCHMIDT DE FREITAS GF4049 00:52:15 00:51:56

-- Feminino - 50 a 59 anos --
1 34 ANTONIA FLORISIA BARBIN GF5059 00:37:12 00:37:04 ESPORTE GUARIBA
2 327 SOLANGE A. ROSA CANTELLE GF5059 00:37:39 00:37:29 TEAM VAQUEIRO
3 142 ISABEL DE MENEZES SANTOS GF5059 00:43:46 00:43:37

-- Feminino - 60 a 99 anos --
1 233 MARGARIDA ODETE AMARAL CARRASC GF6099 00:38:17 00:38:07 ESPORTE GUARIBA

-- Masculino - 16 a 24 anos --
1 278 PAULO JOSÉ MACHADO JUNIOR GM1624 00:21:49 00:21:48 ATLETAS DO FUTURO
2 80 DIONTAN ALVES DE OLIVEIRA GM1624 00:22:07 00:22:06 ATLETAS DO FUTURO
3 149 JEAN CARLOS VERISSIANO DOS SAN GM1624 00:22:16 00:22:15 JABOTICABAL
4 22 ALEXANDRE RIBEIRO PASTORELLO GM1624 00:22:39 00:22:36 FAE JABOTICABAL
5 121 GABRIEL DE MORAES GM1624 00:22:56 00:22:54 ATLETAS DO FUTURO
6 167 JONATHAN GOMES GM1624 00:23:37 00:23:35 CIDADÃO OLÍMPICO
7 246 MATEUS DOS SANTOS CHAVES GM1624 00:24:18 00:24:15 PACER/BRODOWSKI
8 345 TIAGO PEREIRA DUARTE PAES GM1624 00:24:30 00:24:29 TEAM VAQUEIRO
9 230 MARCOS FELIPE BRITO DA SILVA GM1624 00:24:50 00:24:47 ATLETAS DO FUTURO
10 344 TIAGO COLOMBO GM1624 00:27:45 00:27:42 ATLETAS DO FUTURO
11 361 WILLIAM CARLOS DOS SANTOS GM1624 00:28:56 00:28:50
12 159 JOÃO PEDRO COMELLI GM1624 00:29:10 00:29:03 TEAM VAQUEIRO
13 369 JHONATAN FRANCISCO OLIVEIRA GM1624 00:29:20 00:29:15 SOL NASCENTE
14 70 DAVID BATISTA GM1624 00:29:50 00:29:49 TAIACU
15 48 BRUNO MARTINS SANTOS RAMIRES GM1624 00:30:01 00:29:52
16 340 THIAGO HENRIQUE DA SILVA GM1624 00:30:18 00:29:58 OLÍMPICA BATATAIS
17 165 JONAS CHRISTIAN DESCHAMPS GM1624 00:33:43 00:33:30
18 286 RAFAEL HENRIQUE DE OLIVEIRA GM1624 00:36:08 00:35:39 COCAM
19 120 GABRIEL ANTONIO DA S. CORNELIO GM1624 00:36:08 00:35:39 COCAM
20 289 RAFAEL STEPHENS GM1624 00:37:35 00:37:30 CORPO EM MOVIMENTO
21 301 RICARDO APARECIDO NARESSI GM1624 00:37:40 00:37:22 PARAÍSO - SP
22 41 ARTHUR LESUR CYPRIANO GM1624 00:38:17 00:38:10 LIFE RUNNING
23 281 PEDRO ANTONIO CATULINO NETO GM1624 00:46:49 00:46:21
24 17 ALAN LUIS RONCOLETA GM1624 00:12:36 00:12:32 ATLETAS DO FUTURO

-- Masculino - 25 a 29 anos --
1 125 GILMAR LOPES DA SILVA GM2529 00:20:21 00:20:21 ARPA-SMEL / RAX / EMPÓRIO NATURAL
2 213 LUÍS FERNANDO SANTOS MEDEIROS GM2529 00:21:04 00:21:02 BRODOWSKI RUNNERS DMEL
3 193 JULIANO RICARDO ALVES GM2529 00:22:49 00:22:45 RUNNING FOR LIFE
4 186 JOSE PIRES JUNIOR GM2529 00:23:07 00:23:06 ACADEMIA FITNESS MATAO
5 370 FERNANDO LUIZ FERREIRA GM2529 00:23:22 00:23:18 ACADEMIA SILVIO KIFURI
6 61 CÉSAR PORTO DIAS GM2529 00:24:13 00:24:13 SUZANÁPOLIS
7 77 DIEGO DE SOUZA PINTO GERALDO GM2529 00:24:48 00:24:48 9GB ACADEMIA PINGO D" ÁGUA
8 37 ANTONIO CARLOS COSTA JUNIOR GM2529 00:27:05 00:27:03 BRODOWSKI RUNNERS
9 255 MAXSUEL FLORINDO GM2529 00:27:40 00:27:36 TEAM VAQUEIRO
10 300 RENATO VEIGA GM2529 00:27:43 00:27:38 SUZANÁPOLIS
11 55 CARLOS HENRIQUE FERREIRA GM2529 00:28:05 00:28:03 TRIPLE ASSESSORIA ESPORTIVA
12 366 WILLIAN CESAR LINO ACEDO GM2529 00:29:32 00:29:24
13 298 RENATO ANGELO GM2529 00:29:48 00:29:42
14 108 FABIO DE OLIVEIRA MORREIRA GM2529 00:30:01 00:29:56 BOAS NOVAS
15 134 GUSTAVO LUIZ SILVA COSTA GM2529 00:31:05 00:30:51 CLUBE DA CORRIDA SESC RIO PRETO
16 27 ANDERSON AUGUSTO DO SANTOS GM2529 00:31:53 00:31:40 COCAM
17 137 HORLENS FERNANDO VIEIRA GM2529 00:32:49 00:32:45
18 348 VALDEIR GOMES ARMARIO GM2529 00:32:49 00:32:45
19 251 MAURICIO OLIANI GM2529 00:32:51 00:32:34 RUNDOWNS
20 75 DIEGO CARLOS COCA GM2529 00:35:20 00:35:14 CORPO EM MOVIMENTO
21 285 RAFAEL FELIX DA SILVA CORRADI GM2529 00:35:23 00:35:09
22 288 RAFAEL RIOS DE OLIVEIRA GM2529 00:39:01 00:38:41
23 386 THIAGO DE SOUZA GM2529 00:42:51 00:42:29 ACADEMIA PINGO DA AGUA
24 287 RAFAEL MASSON GM2529 00:10:26 00:10:20 BRODOWSKI RUNNERS DMEL

-- Masculino - 30 a 34 anos --
1 90 EDSON ROBERTO BRITO SACCHETTO GM3034 00:21:11 00:21:10 PACER ASSESORIA ESPORTIVA
2 119 FRANCIVALDO BARROSO DOS SANTOS GM3034 00:22:04 00:22:03 PÉ DE FRANGO RUNNING
3 23 ALEXANDREALVESPEREIRA GM3034 00:22:17 00:22:16 MARCELOCABRINI,IBITINGA,LONDONFIT
4 317 ROSENILTO CARDOSO DE MATTOS GM3034 00:22:45 00:22:44 ATLETISMO BOCAINA
5 150 JESUALDO CESAR DA SILVA GM3034 00:22:48 00:22:44 OLÍMPICA BATATAIS
6 69 DANIEL H CAYRES GM3034 00:22:56 00:22:54 EVANDRO MOTOS MATÃO
7 176 JOSÉ GERALDO DOS SANTOS GM3034 00:23:21 00:23:14 PE VELOZ
8 245 MARLON SOUZA FDREITAS GM3034 00:25:13 00:25:06 ARPA/ SMELL/ FLEX/EMPÓRIO NATURAL/RAX
9 284 RAFAEL ANTONIO FERREIRA GM3034 00:28:27 00:28:25 SMART RUNNERS
10 38 ANTONIO CARLOS JACOMELLI GM3034 00:28:29 00:28:18 SMELT CATANDUVA
11 131 GUILHERME DA COSTA NUNES GM3034 00:29:35 00:29:25 TEAM VAQUEIRO
12 192 JULIANO FRANCISCO ZAQUEU GM3034 00:29:44 00:29:39 SOL NASCENTE
13 217 LUIZ CARLOS DE OLIVEIRA JUNIOR GM3034 00:30:09 00:30:03 JUSTICEIROS RUN
14 52 CARLOS EDUARDO DE CARVALHO GM3034 00:31:28 00:31:20
15 336 THALYS AUGUSTO BRUNETTI GM3034 00:31:30 00:31:22 EQUIPE LIFE RUNNING
16 382 FERNANDO GENTILE GM3034 00:32:14 00:31:57
17 364 JOÃO CREPALDI NETO GM3034 00:33:21 00:33:14 COCAM
18 347 VAGLAN CARDOSO GM3034 00:33:56 00:33:51 SUZANÁPOLIS
19 20 ALESSANDRO CESAR CANDIDO GM3034 00:35:21 00:35:08 ALESSANDRO CANDIDO ADVOCACIA
20 103 EVERTON FERREIRA DA SILVA GM3034 00:35:21 00:35:08 CABEÇA DINOSSAURO
21 96 ELIENALDO ANACLETO DA COSTA SANTOS GM3034 00:35:41 00:35:29
22 31 ANDRÉ GUSTAVO DE OLIVEIRA GM3034 00:36:24 00:36:17 LIFE RUNNING
23 339 THIAGO CARRARO CINEIS GM3034 00:38:20 00:38:08 CORUJA
24 381 FLAVIO GIL GM3034 00:38:52 00:38:31
25 54 CARLOS EDUARDO LAURENTI SATO GM3034 00:39:45 00:39:38 LIFE RUNING
26 7 ADRIANO GLANZ DE OLIVEIRA GM3034 00:39:47 00:39:29
27 277 PAULO EDUARDO RAVAZZI GM3034 00:41:18 00:41:03
28 160 JOAO ROBERTO FANHANI FILHO GM3034 00:42:56 00:42:47 LIFE RUNNING
29 306 RICARDO TIERI GM3034 00:43:34 00:43:23 LIFE RUNNING

-- Masculino - 35 a 39 anos --
1 182 JOSE MARIO GONÇALVES BATISTA GM3539 00:21:18 00:21:18 MARCELO CABRINI
2 371 VANDER GARDINI GM3539 00:21:53 00:21:49 MARCELO CABRINI/MAXIMUS SUPLEMENTOS
3 229 MARCOS DONIZETI DA SILVA GM3539 00:22:41 00:22:38 ASSESSORIA MARCELO CABRINI
4 196 JULIO CESAR OLIVEIRA GM3539 00:23:08 00:23:05 ATLETISMO BOCAINA
5 164 JOELCIO DIAS DOURADO GM3539 00:23:46 00:23:42 ZIBOO
6 212 LUCIANO JOSE MEN GM3539 00:23:53 00:23:52 CORAÇÃOVALENTE
7 318 RUDELEY CLEBER BOCCHI GM3539 00:23:57 00:23:55 ASSESSORIA MARCELO CABRINI
8 42 AURI FERNANDES DOS SANTOS GM3539 00:24:21 00:24:19 PE VELOZ
9 10 AECIO GOMES FERREIRA GM3539 00:25:07 00:25:06 ESPORTE GUARIBA
10 14 AGNALDO DIONISIO DA SILVA GM3539 00:25:14 00:25:12 PAPA LEGUAS
11 199 KLEBER RODRIGUES DO PRADO GM3539 00:25:20 00:25:17 ATLETAS DO FUTURO
12 9 ADROALDO AP. DE BRITO SILVEIRA GM3539 00:25:30 00:25:26 PÉ DE FRANGO RUNNING
13 2 ADEMILTON TIBURTINO DE MELO GM3539 00:27:20 00:27:18 PAPA LÉGUA
14 316 ROSEMIRO APARECIDO PESSINI GM3539 00:27:54 00:27:48 LIFE RUNNING
15 384 DANIEL STUCHI GM3539 00:29:36 00:29:10 LIFE RUNING
16 56 CARLOS ROBERTO MORENO GM3539 00:29:38 00:29:32 STHEFANY MORENO CALÇADOS
17 135 HÉLIO LOPES DA SILVA GM3539 00:30:03 00:29:54 TEM VAQUEIRO
18 195 JULIO CÉSAR DIAS NOVAIS GM3539 00:31:29 00:31:18 TEMA VAQUEIRO
19 62 CÍCERO GIL GM3539 00:31:39 00:31:28 CORUJA
20 68 DANIEL DE CASTRO NEVES MINGHIN GM3539 00:32:19 00:32:11 LIFE RUNNING
21 313 RODRIGO TAVARES CORRÊA GM3539 00:32:34 00:32:22 TEAM VAQUEIRO
22 304 RICARDO REIS PRADO GM3539 00:33:37 00:33:25
23 383 ANDRE DELATOGNA GM3539 00:34:20 00:33:54 LIFE RUNING
24 226 MÁRCIO EGÍDIO PEREIRA GM3539 00:35:44 00:35:38 GUAÍRA GRAMAS PAISAGISMO
25 133 GUSTAVO DE CASTRO MORANDE GM3539 00:35:47 00:35:28 CLUBE DA CORRIDA SESC RIO PRETO
26 107 FABIO AUGUSTO BORDINASSI GM3539 00:39:09 00:38:59 TEAM VAQUEIRO
27 40 ANTONIO RICARDO HESPANHOL GM3539 00:28:00 00:27:53 CORUJA

-- Masculino - 40 a 49 anos --
1 367 ALEUDO FRANCISCO DOS SANTOS GM4049 00:20:45 00:20:45 ASA CORRE AMERICANA
2 88 EDSON GONÇALVES DE OLIVEIRA GM4049 00:22:23 00:22:18 ADS LABORATORIOS
3 162 JOÃO VIANEI RIBEIRO SANTOS GM4049 00:22:51 00:22:48 GUARIBA
4 123 GENIVALDO BARBOSA DA SILVA GM4049 00:23:31 00:23:31 IBATÉ
5 254 MAURO SERGIO DOS SANTOS VIAIS GM4049 00:23:49 00:23:46 SOL NASCENTE
6 325 SIDNEI GOMES GM4049 00:24:24 00:24:21 JAU
7 264 NEIRIBERTO SERAFIM GM4049 00:24:52 00:24:47 EQUIPE ATLETISMO EBENÉZER - IBATÉ / SP
8 266 NELSON VICTORINO GM4049 00:25:17 00:25:10 OLÍMPICA BATATAIS
9 352 VALMIR EDMILSON DOS SANTOS GM4049 00:25:20 00:25:19 SOL NASCENTE
10 136 HENRIQUE HILTON RIBEIRO GM4049 00:26:28 00:26:27 SMELT CATANDUVA
11 203 LEOMAR APARECIDO IANONI GM4049 00:26:29 00:26:26 ATLETAS DO FUTURO
12 173 JOSE CARLOS LEME GM4049 00:27:01 00:26:58 JAU
13 218 LUIZ CARLOS SANTANA GM4049 00:27:30 00:27:28 SMELT CATANDUVA
14 368 LEVI VALADÃO GM4049 00:27:50 00:27:48 PAPA LÉGUA
15 353 VANDERLEI BAYO GM4049 00:28:06 00:27:58 AVULSO
16 146 IVO ANTONIO BARATELA GM4049 00:28:37 00:28:31 SMELT
17 13 AGNALDO CARVALHO DE SOUZA GM4049 00:28:48 00:28:36 SMELT
18 118 FRANCISCO CARLOS MENDES GM4049 00:29:21 00:29:07 SOL NASCENTE
19 180 JOSE LUCIANO VAL GM4049 00:29:35 00:29:24 BOMBEIROS
20 15 AIRTON DONIZETI TOBIAS GM4049 00:30:15 00:30:06 OLÍMPICA BATATAIS
21 113 FERNANDO GIACOMINI GM4049 00:30:20 00:30:09 TEAM VAQUEIRO
22 232 MARCOS ROBEERTO MORAES GM4049 00:30:30 00:30:21 RIO PRETO
23 174 JOSE DOMINGOS CESTARI GM4049 00:31:53 00:31:20 COCAM
24 299 RENATO JORGE MARCELO GM4049 00:32:40 00:32:34
25 183 JOSE MAURO BARBOSA GM4049 00:32:43 00:32:33 CORUJA - CORREDORES UNIDOS DE JAU
26 64 CLAUDINEI DA COSTA GM4049 00:32:49 00:32:37 SMELT
27 194 JÚLIO CÉSAR DA CUNHA COSTA GM4049 00:33:29 00:33:23 BOMBEIROS JAÚ
28 307 RINALDO CHERUBIM GM4049 00:34:07 00:33:54
29 272 OSMAR COSTA DOS SANTOS GM4049 00:35:20 00:35:08
30 227 MARCOS AURELIO SANCHES GM4049 00:36:56 00:36:45
31 214 LUÍS HENRIQUE CRIPA CRISPINO GM4049 00:37:36 00:37:28 LIFE RUNNING
32 79 DIONELSON JOSÉ PACHECO GM4049 00:37:39 00:37:28 SMELT
33 59 CESAR ADRIANO DE SOUZA GM4049 00:38:09 00:37:49
34 279 PAULO SERGIO CICOTTI GM4049 00:41:29 00:41:22 ACADEMIA RESISTENCIA
35 99 EMILIO CARLOS DAMASCENO GM4049 00:45:23 00:45:20

-- Masculino - 50 a 59 anos --
1 178 JOSÉ HENRIQUE SALLA GM5059 00:24:21 00:24:18 ATLETAS DO FUTURO
2 81 DONISETE ANTONIO JACINTO GM5059 00:24:59 00:24:56 PÉ DE FRANGO RUNNING
3 25 ALMIR BRAGUIROLI GM5059 00:25:49 00:25:46 OLÍMPICA BATATAIS
4 154 JOÃO CARLOS MAGALHÕES GM5059 00:26:41 00:26:38
5 249 MAURICIO CAMARA GM5059 00:27:12 00:27:06 BRODOWSKI RUNNERS
6 358 WALTER PESSOA GM5059 00:27:58 00:27:51 TEEN VAQUEIRO
7 311 ROBERVAL NERES DOS SANTOS GM5059 00:28:40 00:28:36 RGMSABOR BAURU
8 253 MAURO DONIZETI CAMARA GM5059 00:29:14 00:29:07 BRODOWSKI RUNNERS
9 117 FRANCISCO CARLOS FLORINDO GM5059 00:29:43 00:29:35 TEAM VAQUEIRO
10 11 AFONSO CAPRISTO NETO GM5059 00:30:06 00:29:51 CLUBE DE TÊNIS CATANDUVA
11 35 ANTONIO APARECIDO MONTIM GM5059 00:30:19 00:30:13 TAIACU
12 171 JOSE ANTONIO STELLARI GM5059 00:30:40 00:30:27
13 175 JOSE DONIZETE MOREIRA GM5059 00:31:39 00:31:29 JAU
14 302 CARLOS CESAR GALLO GM5059 00:33:29 00:33:25 ATLETAS DO FUTURO
15 197 JURANDIR BATISTA FERREIRA GM5059 00:34:32 00:34:23 BRODOWSKI RUNNERS
16 372 EDSON DE PAULO GM5059 00:35:58 00:35:54
17 170 JOSE ALVES DA SILVA GM5059 00:36:19 00:36:09 ACADEMIA FITNESS MATAO
18 153 JOAO BATISTA CRISPOLIM GM5059 00:36:50 00:36:36 TAIACU
19 385 MARCOS HENRIQUE GARCIA GM5059 00:42:29 00:42:22 LIFE RUNING
20 100 ERANILDO ALVES PEREIRA GM5059 00:46:35 00:46:28 ESPORTE GUARIBA

-- Masculino - 60 a 99 anos --
1 1 ADAIR RIBEIRO DE OLIVEIRA GM6099 00:26:15 00:26:10 PERSONAL CLAUDIA
2 95 ELIAS VIEIRA GM6099 00:27:46 00:27:39 SOL NASCENTE
3 200 LAERCIO RICARDO GM6099 00:28:35 00:28:35 PÉ QUENTE DE BORBOREMA
4 83 EDINO ALVES DE FIGUEIREDO GM6099 00:28:47 00:28:41 OLÍMPICA BATATAIS
5 36 ANTONIO CARLOS COSTA GM6099 00:29:20 00:29:13 BRODOWSKI RUNNERS
6 181 JOSÉ MARIA DE SOUZA GM6099 00:29:32 00:29:27 BOMBEIRO JAÚ
7 216 LUIZ CARLOS CANGELAR GM6099 00:31:10 00:31:05 EQUIPE ATLETISMO EBENÉZER - IBATÉ / SP
8 334 TELSO LEMOS LADEIRA GM6099 00:32:09 00:32:07 SMELT
9 187 JOSE ROBERTO CASSOLI GM6099 00:32:09 00:32:03 ACADEMIA VIA CORPUS
10 172 JOSE AZARIAS GM6099 00:32:47 00:32:41 JAU
11 273 OSMAR DOS SANTOS GM6099 00:33:17 00:33:15
12 258 ANISIO FANTONI GM6099 00:33:30 00:33:28 ARPA-SMEL / RAX / EMPÓRIO NATURAL
13 163 JOÃO VIEIRA DO PRADO GM6099 00:35:31 00:35:30 SMELT
14 147 JAIR JOSÉ MARQUES GM6099 00:36:20 00:36:16
15 140 IGINO DE SOLZA GM6099 00:40:46 00:40:44 TAIACU
16 373 NATAL BIANCHI GM6099 00:41:03 00:40:46 SMELT
17 157 JOÃO GROGGIA JUNIOR GM6099 00:42:55 00:42:43 EQUIPE LIFE RUNNING
18 321 SEBASTIÃO EGÍDIO PEREIRA GM6099 00:26:38 00:26:24 GUAÍRA GRAMAS PAISAGISMO

Fonte: Runner Brasil

.
Ouça a MelodiaWeb Este site possui uma rádio web que prioriza música italiana, MPB, clássica, tango, bolero, instrumental, esperanto, etc.
Clique na imagem ao lado para ouvir
Ouça a MelodiaWeb
Veja também
(12/05/2014) 16ª Corrida do Trabalhador em Catanduva/SP - 6 Km
(08/05/2014) Como correr corretamente?
(26/11/2013) Fórum Mundial de Ciências 2013 terá transmissão pela internet
(31/08/2013) A bicicleta impera no intermodal do Recife
(02/03/2013) Festival Sabor de São Paulo chega a São José do Rio Preto
(16/02/2013) Meteorito cai na Russia - Registro em Vídeo
(25/10/2011) DF recebe evento sobre comércio eletrônico
(25/11/2010) 2º Encontro de Missões/Igreja Evangélica Assembléia de Deus
(27/08/2010) VEM AI O II ELESP 2010
(17/08/2010) CONVITE CAMINHADA DIA DO JOVEM EMPREENDEDOR, PROXIMO DOMINGO
(20/07/2010) Santuário das Artes
(26/05/2010) "O Everest do futebol mundial"
(31/03/2010) Projeto Circulação de Música Instrumental leva arte para cidades pernambucanas
(23/03/2010) Adriana Calcanhotto apresenta show infantil em BH
(06/03/2010) IX EXPOSIÇÃO NACIONAL DE ORQUÍDEAS


Veja todo conteúdo desta categoria
Ouça a Rádio do coração
© 2017 Rádio Melodia. Todos os direitos reservados.
Design: Win Multimídia - Desenvolvimento:Adriel Menezes